sensor_id;sensor_type;location;lat;lon;timestamp;temperature;humidity
17252;DHT22;8742;51.716;8.790;2023-09-12T00:00:57;20.50;99.90
17252;DHT22;8742;51.716;8.790;2023-09-12T00:03:24;20.50;99.90
17252;DHT22;8742;51.716;8.790;2023-09-12T00:05:52;20.40;99.90
17252;DHT22;8742;51.716;8.790;2023-09-12T00:08:19;20.40;99.90
17252;DHT22;8742;51.716;8.790;2023-09-12T00:10:45;20.40;99.90
17252;DHT22;8742;51.716;8.790;2023-09-12T00:13:14;20.30;99.90
17252;DHT22;8742;51.716;8.790;2023-09-12T00:15:40;20.30;99.90
17252;DHT22;8742;51.716;8.790;2023-09-12T00:18:07;20.30;99.90
17252;DHT22;8742;51.716;8.790;2023-09-12T00:20:34;20.20;99.90
17252;DHT22;8742;51.716;8.790;2023-09-12T00:23:01;20.20;99.90
17252;DHT22;8742;51.716;8.790;2023-09-12T00:25:29;20.20;99.90
17252;DHT22;8742;51.716;8.790;2023-09-12T00:27:56;20.20;99.90
17252;DHT22;8742;51.716;8.790;2023-09-12T00:30:24;20.20;99.90
17252;DHT22;8742;51.716;8.790;2023-09-12T00:32:51;20.20;99.90
17252;DHT22;8742;51.716;8.790;2023-09-12T00:35:18;20.20;99.90
17252;DHT22;8742;51.716;8.790;2023-09-12T00:37:45;20.10;99.90
17252;DHT22;8742;51.716;8.790;2023-09-12T00:40:11;20.10;99.90
17252;DHT22;8742;51.716;8.790;2023-09-12T00:42:38;20.10;99.90
17252;DHT22;8742;51.716;8.790;2023-09-12T00:45:06;20.10;99.90
17252;DHT22;8742;51.716;8.790;2023-09-12T00:47:35;20.10;99.90
17252;DHT22;8742;51.716;8.790;2023-09-12T00:50:03;20.10;99.90
17252;DHT22;8742;51.716;8.790;2023-09-12T00:52:33;20.00;99.90
17252;DHT22;8742;51.716;8.790;2023-09-12T00:55:01;20.00;99.90
17252;DHT22;8742;51.716;8.790;2023-09-12T00:57:30;20.00;99.90
17252;DHT22;8742;51.716;8.790;2023-09-12T00:59:58;19.90;99.90
17252;DHT22;8742;51.716;8.790;2023-09-12T01:02:25;19.90;99.90
17252;DHT22;8742;51.716;8.790;2023-09-12T01:04:53;19.90;99.90
17252;DHT22;8742;51.716;8.790;2023-09-12T01:07:20;19.90;99.90
17252;DHT22;8742;51.716;8.790;2023-09-12T01:09:47;19.90;99.90
17252;DHT22;8742;51.716;8.790;2023-09-12T01:12:14;19.90;99.90
17252;DHT22;8742;51.716;8.790;2023-09-12T01:14:41;19.80;99.90
17252;DHT22;8742;51.716;8.790;2023-09-12T01:17:08;19.80;99.90
17252;DHT22;8742;51.716;8.790;2023-09-12T01:19:35;19.80;99.90
17252;DHT22;8742;51.716;8.790;2023-09-12T01:22:26;19.80;99.90
17252;DHT22;8742;51.716;8.790;2023-09-12T01:25:11;19.80;99.90
17252;DHT22;8742;51.716;8.790;2023-09-12T01:27:46;19.80;99.90
17252;DHT22;8742;51.716;8.790;2023-09-12T01:30:20;19.80;99.90
17252;DHT22;8742;51.716;8.790;2023-09-12T01:32:47;19.80;99.90
17252;DHT22;8742;51.716;8.790;2023-09-12T01:35:14;19.80;99.90
17252;DHT22;8742;51.716;8.790;2023-09-12T01:37:41;19.80;99.90
17252;DHT22;8742;51.716;8.790;2023-09-12T01:40:09;19.80;99.90
17252;DHT22;8742;51.716;8.790;2023-09-12T01:42:40;19.80;99.90
17252;DHT22;8742;51.716;8.790;2023-09-12T01:45:09;19.80;99.90
17252;DHT22;8742;51.716;8.790;2023-09-12T01:47:37;19.80;99.90
17252;DHT22;8742;51.716;8.790;2023-09-12T01:50:06;19.80;99.90
17252;DHT22;8742;51.716;8.790;2023-09-12T01:52:35;19.70;99.90
17252;DHT22;8742;51.716;8.790;2023-09-12T01:55:03;19.70;99.90
17252;DHT22;8742;51.716;8.790;2023-09-12T01:57:31;19.70;99.90
17252;DHT22;8742;51.716;8.790;2023-09-12T01:59:58;19.70;99.90
17252;DHT22;8742;51.716;8.790;2023-09-12T02:02:26;19.70;99.90
17252;DHT22;8742;51.716;8.790;2023-09-12T02:05:10;19.60;99.90
17252;DHT22;8742;51.716;8.790;2023-09-12T02:07:40;19.60;99.90
17252;DHT22;8742;51.716;8.790;2023-09-12T02:10:08;19.60;99.90
17252;DHT22;8742;51.716;8.790;2023-09-12T02:12:35;19.60;99.90
17252;DHT22;8742;51.716;8.790;2023-09-12T02:15:02;19.70;99.90
17252;DHT22;8742;51.716;8.790;2023-09-12T02:17:30;19.70;99.90
17252;DHT22;8742;51.716;8.790;2023-09-12T02:19:57;19.70;99.90
17252;DHT22;8742;51.716;8.790;2023-09-12T02:22:24;19.70;99.90
17252;DHT22;8742;51.716;8.790;2023-09-12T02:24:51;19.70;99.90
17252;DHT22;8742;51.716;8.790;2023-09-12T02:27:18;19.70;99.90
17252;DHT22;8742;51.716;8.790;2023-09-12T02:29:45;19.60;99.90
17252;DHT22;8742;51.716;8.790;2023-09-12T02:32:11;19.60;99.90
17252;DHT22;8742;51.716;8.790;2023-09-12T02:34:40;19.60;99.90
17252;DHT22;8742;51.716;8.790;2023-09-12T02:37:07;19.60;99.90
17252;DHT22;8742;51.716;8.790;2023-09-12T02:39:33;19.60;99.90
17252;DHT22;8742;51.716;8.790;2023-09-12T02:42:00;19.60;99.90
17252;DHT22;8742;51.716;8.790;2023-09-12T02:44:28;19.60;99.90
17252;DHT22;8742;51.716;8.790;2023-09-12T02:46:54;19.50;99.90
17252;DHT22;8742;51.716;8.790;2023-09-12T02:49:21;19.50;99.90
17252;DHT22;8742;51.716;8.790;2023-09-12T02:51:49;19.50;99.90
17252;DHT22;8742;51.716;8.790;2023-09-12T02:54:16;19.40;99.90
17252;DHT22;8742;51.716;8.790;2023-09-12T02:56:43;19.40;99.90
17252;DHT22;8742;51.716;8.790;2023-09-12T02:59:10;19.40;99.90
17252;DHT22;8742;51.716;8.790;2023-09-12T03:01:36;19.40;99.90
17252;DHT22;8742;51.716;8.790;2023-09-12T03:04:03;19.30;99.90
17252;DHT22;8742;51.716;8.790;2023-09-12T03:06:30;19.30;99.90
17252;DHT22;8742;51.716;8.790;2023-09-12T03:08:58;19.30;99.90
17252;DHT22;8742;51.716;8.790;2023-09-12T03:11:26;19.30;99.90
17252;DHT22;8742;51.716;8.790;2023-09-12T03:13:53;19.30;99.90
17252;DHT22;8742;51.716;8.790;2023-09-12T03:16:20;19.30;99.90
17252;DHT22;8742;51.716;8.790;2023-09-12T03:18:49;19.30;99.90
17252;DHT22;8742;51.716;8.790;2023-09-12T03:21:16;19.30;99.90
17252;DHT22;8742;51.716;8.790;2023-09-12T03:23:43;19.30;99.90
17252;DHT22;8742;51.716;8.790;2023-09-12T03:26:11;19.20;99.90
17252;DHT22;8742;51.716;8.790;2023-09-12T03:28:38;19.20;99.90
17252;DHT22;8742;51.716;8.790;2023-09-12T03:31:08;19.20;99.90
17252;DHT22;8742;51.716;8.790;2023-09-12T03:33:37;19.10;99.90
17252;DHT22;8742;51.716;8.790;2023-09-12T03:36:04;19.10;99.90
17252;DHT22;8742;51.716;8.790;2023-09-12T03:38:31;19.10;99.90
17252;DHT22;8742;51.716;8.790;2023-09-12T03:40:58;19.10;99.90
17252;DHT22;8742;51.716;8.790;2023-09-12T03:43:26;19.10;99.90
17252;DHT22;8742;51.716;8.790;2023-09-12T03:45:54;19.10;99.90
17252;DHT22;8742;51.716;8.790;2023-09-12T03:48:20;19.10;99.90
17252;DHT22;8742;51.716;8.790;2023-09-12T03:50:47;19.10;99.90
17252;DHT22;8742;51.716;8.790;2023-09-12T03:53:14;19.10;99.90
17252;DHT22;8742;51.716;8.790;2023-09-12T03:55:41;19.10;99.90
17252;DHT22;8742;51.716;8.790;2023-09-12T03:58:08;19.10;99.90
17252;DHT22;8742;51.716;8.790;2023-09-12T04:00:36;19.10;99.90
17252;DHT22;8742;51.716;8.790;2023-09-12T04:03:04;19.10;99.90
17252;DHT22;8742;51.716;8.790;2023-09-12T04:05:30;19.10;99.90
17252;DHT22;8742;51.716;8.790;2023-09-12T04:07:57;19.10;99.90
17252;DHT22;8742;51.716;8.790;2023-09-12T04:10:24;19.10;99.90
17252;DHT22;8742;51.716;8.790;2023-09-12T04:12:51;19.10;99.90
17252;DHT22;8742;51.716;8.790;2023-09-12T04:15:18;19.00;99.90
17252;DHT22;8742;51.716;8.790;2023-09-12T04:17:46;19.00;99.90
17252;DHT22;8742;51.716;8.790;2023-09-12T04:20:13;19.00;99.90
17252;DHT22;8742;51.716;8.790;2023-09-12T04:22:42;19.00;99.90
17252;DHT22;8742;51.716;8.790;2023-09-12T04:25:09;19.00;99.90
17252;DHT22;8742;51.716;8.790;2023-09-12T04:27:35;19.00;99.90
17252;DHT22;8742;51.716;8.790;2023-09-12T04:30:04;19.00;99.90
17252;DHT22;8742;51.716;8.790;2023-09-12T04:32:31;19.00;99.90
17252;DHT22;8742;51.716;8.790;2023-09-12T04:34:59;19.00;99.90
17252;DHT22;8742;51.716;8.790;2023-09-12T04:37:26;19.10;99.90
17252;DHT22;8742;51.716;8.790;2023-09-12T04:39:53;19.10;99.90
17252;DHT22;8742;51.716;8.790;2023-09-12T04:42:19;19.10;99.90
17252;DHT22;8742;51.716;8.790;2023-09-12T04:44:46;19.10;99.90
17252;DHT22;8742;51.716;8.790;2023-09-12T04:47:13;19.10;99.90
17252;DHT22;8742;51.716;8.790;2023-09-12T04:49:41;19.10;99.90
17252;DHT22;8742;51.716;8.790;2023-09-12T04:52:10;19.10;99.90
17252;DHT22;8742;51.716;8.790;2023-09-12T04:54:36;19.10;99.90
17252;DHT22;8742;51.716;8.790;2023-09-12T04:57:04;19.10;99.90
17252;DHT22;8742;51.716;8.790;2023-09-12T04:59:30;19.20;99.90
17252;DHT22;8742;51.716;8.790;2023-09-12T05:01:57;19.20;99.90
17252;DHT22;8742;51.716;8.790;2023-09-12T05:04:24;19.30;99.90
17252;DHT22;8742;51.716;8.790;2023-09-12T05:06:51;19.30;99.90
17252;DHT22;8742;51.716;8.790;2023-09-12T05:09:20;19.30;99.90
17252;DHT22;8742;51.716;8.790;2023-09-12T05:11:47;19.40;99.90
17252;DHT22;8742;51.716;8.790;2023-09-12T05:14:14;19.40;99.90
17252;DHT22;8742;51.716;8.790;2023-09-12T05:16:40;19.50;99.90
17252;DHT22;8742;51.716;8.790;2023-09-12T05:19:07;19.50;99.90
17252;DHT22;8742;51.716;8.790;2023-09-12T05:21:34;19.60;99.90
17252;DHT22;8742;51.716;8.790;2023-09-12T05:24:01;19.60;99.90
17252;DHT22;8742;51.716;8.790;2023-09-12T05:26:29;19.70;99.90
17252;DHT22;8742;51.716;8.790;2023-09-12T05:28:56;19.80;99.90
17252;DHT22;8742;51.716;8.790;2023-09-12T05:31:22;19.80;99.90
17252;DHT22;8742;51.716;8.790;2023-09-12T05:33:49;19.90;99.90
17252;DHT22;8742;51.716;8.790;2023-09-12T05:36:16;19.90;99.90
17252;DHT22;8742;51.716;8.790;2023-09-12T05:38:43;20.00;99.90
17252;DHT22;8742;51.716;8.790;2023-09-12T05:41:10;20.00;99.90
17252;DHT22;8742;51.716;8.790;2023-09-12T05:43:38;20.10;99.90
17252;DHT22;8742;51.716;8.790;2023-09-12T05:46:04;20.10;99.90
17252;DHT22;8742;51.716;8.790;2023-09-12T05:48:31;20.20;99.90
17252;DHT22;8742;51.716;8.790;2023-09-12T05:50:58;20.30;99.90
17252;DHT22;8742;51.716;8.790;2023-09-12T05:53:25;20.50;99.90
17252;DHT22;8742;51.716;8.790;2023-09-12T05:55:52;20.60;99.90
17252;DHT22;8742;51.716;8.790;2023-09-12T05:58:18;20.70;99.90
17252;DHT22;8742;51.716;8.790;2023-09-12T06:00:47;20.90;99.90
17252;DHT22;8742;51.716;8.790;2023-09-12T06:03:14;21.00;99.90
17252;DHT22;8742;51.716;8.790;2023-09-12T06:05:42;21.10;99.90
17252;DHT22;8742;51.716;8.790;2023-09-12T06:08:09;21.30;99.90
17252;DHT22;8742;51.716;8.790;2023-09-12T06:10:36;21.40;99.90
17252;DHT22;8742;51.716;8.790;2023-09-12T06:13:11;21.50;99.90
17252;DHT22;8742;51.716;8.790;2023-09-12T06:15:40;21.60;99.90
17252;DHT22;8742;51.716;8.790;2023-09-12T06:18:09;21.70;99.90
17252;DHT22;8742;51.716;8.790;2023-09-12T06:20:38;21.80;99.90
17252;DHT22;8742;51.716;8.790;2023-09-12T06:23:05;21.80;99.90
17252;DHT22;8742;51.716;8.790;2023-09-12T06:25:32;21.90;99.90
17252;DHT22;8742;51.716;8.790;2023-09-12T06:27:59;21.90;99.90
17252;DHT22;8742;51.716;8.790;2023-09-12T06:30:26;22.00;99.90
17252;DHT22;8742;51.716;8.790;2023-09-12T06:32:53;22.00;99.90
17252;DHT22;8742;51.716;8.790;2023-09-12T06:35:22;22.10;99.90
17252;DHT22;8742;51.716;8.790;2023-09-12T06:37:49;22.30;99.90
17252;DHT22;8742;51.716;8.790;2023-09-12T06:40:16;22.40;99.90
17252;DHT22;8742;51.716;8.790;2023-09-12T06:42:43;22.50;99.90
17252;DHT22;8742;51.716;8.790;2023-09-12T06:45:10;22.70;99.90
17252;DHT22;8742;51.716;8.790;2023-09-12T06:47:39;22.80;99.90
17252;DHT22;8742;51.716;8.790;2023-09-12T06:52:57;23.00;99.90
17252;DHT22;8742;51.716;8.790;2023-09-12T06:55:31;23.10;99.90
17252;DHT22;8742;51.716;8.790;2023-09-12T07:00:35;23.20;99.90
17252;DHT22;8742;51.716;8.790;2023-09-12T07:03:04;23.30;99.90
17252;DHT22;8742;51.716;8.790;2023-09-12T07:05:34;23.40;99.90
17252;DHT22;8742;51.716;8.790;2023-09-12T07:08:06;23.60;99.90
17252;DHT22;8742;51.716;8.790;2023-09-12T07:10:36;23.80;99.90
17252;DHT22;8742;51.716;8.790;2023-09-12T07:13:03;24.00;99.90
17252;DHT22;8742;51.716;8.790;2023-09-12T07:15:31;24.20;99.90
17252;DHT22;8742;51.716;8.790;2023-09-12T07:18:05;24.30;99.90
17252;DHT22;8742;51.716;8.790;2023-09-12T07:20:46;24.40;99.90
17252;DHT22;8742;51.716;8.790;2023-09-12T07:23:27;24.40;99.90
17252;DHT22;8742;51.716;8.790;2023-09-12T07:25:55;24.40;99.90
17252;DHT22;8742;51.716;8.790;2023-09-12T07:28:23;24.40;99.90
17252;DHT22;8742;51.716;8.790;2023-09-12T07:30:50;24.40;99.90
17252;DHT22;8742;51.716;8.790;2023-09-12T07:33:21;24.50;99.90
17252;DHT22;8742;51.716;8.790;2023-09-12T07:35:52;24.60;99.90
17252;DHT22;8742;51.716;8.790;2023-09-12T07:38:20;24.80;99.90
17252;DHT22;8742;51.716;8.790;2023-09-12T07:40:49;25.00;99.90
17252;DHT22;8742;51.716;8.790;2023-09-12T07:43:17;25.10;99.90
17252;DHT22;8742;51.716;8.790;2023-09-12T07:45:44;25.30;99.90
17252;DHT22;8742;51.716;8.790;2023-09-12T07:48:12;25.50;99.90
17252;DHT22;8742;51.716;8.790;2023-09-12T07:50:40;25.70;99.90
17252;DHT22;8742;51.716;8.790;2023-09-12T07:53:20;25.80;99.90
17252;DHT22;8742;51.716;8.790;2023-09-12T07:55:49;26.10;99.90
17252;DHT22;8742;51.716;8.790;2023-09-12T07:58:18;26.30;99.90
17252;DHT22;8742;51.716;8.790;2023-09-12T08:00:47;26.40;99.90
17252;DHT22;8742;51.716;8.790;2023-09-12T08:03:17;26.40;99.90
17252;DHT22;8742;51.716;8.790;2023-09-12T08:05:54;26.40;99.90
17252;DHT22;8742;51.716;8.790;2023-09-12T08:08:21;26.50;99.90
17252;DHT22;8742;51.716;8.790;2023-09-12T08:10:50;26.60;99.90
17252;DHT22;8742;51.716;8.790;2023-09-12T08:13:17;27.00;99.90
17252;DHT22;8742;51.716;8.790;2023-09-12T08:15:46;27.60;99.90
17252;DHT22;8742;51.716;8.790;2023-09-12T08:18:17;28.10;99.90
17252;DHT22;8742;51.716;8.790;2023-09-12T08:20:44;28.40;99.90
17252;DHT22;8742;51.716;8.790;2023-09-12T08:23:16;28.70;99.90
17252;DHT22;8742;51.716;8.790;2023-09-12T08:25:50;29.00;99.90
17252;DHT22;8742;51.716;8.790;2023-09-12T08:28:17;29.20;99.90
17252;DHT22;8742;51.716;8.790;2023-09-12T08:30:45;28.90;99.90
17252;DHT22;8742;51.716;8.790;2023-09-12T08:33:13;28.50;99.90
17252;DHT22;8742;51.716;8.790;2023-09-12T08:35:41;28.10;99.90
17252;DHT22;8742;51.716;8.790;2023-09-12T08:38:08;27.90;99.90
17252;DHT22;8742;51.716;8.790;2023-09-12T08:40:37;27.50;99.90
17252;DHT22;8742;51.716;8.790;2023-09-12T08:43:06;27.20;99.90
17252;DHT22;8742;51.716;8.790;2023-09-12T08:45:35;26.80;99.90
17252;DHT22;8742;51.716;8.790;2023-09-12T08:48:04;26.50;99.90
17252;DHT22;8742;51.716;8.790;2023-09-12T08:50:32;26.10;99.90
17252;DHT22;8742;51.716;8.790;2023-09-12T08:53:00;25.90;99.90
17252;DHT22;8742;51.716;8.790;2023-09-12T08:55:28;25.70;99.90
17252;DHT22;8742;51.716;8.790;2023-09-12T08:57:56;25.50;99.90
17252;DHT22;8742;51.716;8.790;2023-09-12T09:00:25;25.30;99.90
17252;DHT22;8742;51.716;8.790;2023-09-12T09:02:53;25.30;99.90
17252;DHT22;8742;51.716;8.790;2023-09-12T09:05:21;25.40;99.90
17252;DHT22;8742;51.716;8.790;2023-09-12T09:07:49;25.50;99.90
17252;DHT22;8742;51.716;8.790;2023-09-12T09:10:18;25.50;99.90
17252;DHT22;8742;51.716;8.790;2023-09-12T09:12:50;25.70;99.90
17252;DHT22;8742;51.716;8.790;2023-09-12T09:15:21;26.20;99.90
17252;DHT22;8742;51.716;8.790;2023-09-12T09:17:51;26.80;99.90
17252;DHT22;8742;51.716;8.790;2023-09-12T09:20:26;27.40;99.90
17252;DHT22;8742;51.716;8.790;2023-09-12T09:23:02;28.00;99.90
17252;DHT22;8742;51.716;8.790;2023-09-12T09:25:31;28.70;99.90
17252;DHT22;8742;51.716;8.790;2023-09-12T09:28:02;28.70;99.90
17252;DHT22;8742;51.716;8.790;2023-09-12T09:30:39;28.60;99.90
17252;DHT22;8742;51.716;8.790;2023-09-12T09:36:04;28.70;99.90
17252;DHT22;8742;51.716;8.790;2023-09-12T09:38:32;29.70;99.90
17252;DHT22;8742;51.716;8.790;2023-09-12T09:41:03;30.10;99.90
17252;DHT22;8742;51.716;8.790;2023-09-12T09:43:30;30.60;99.90
17252;DHT22;8742;51.716;8.790;2023-09-12T09:45:58;31.10;99.90
17252;DHT22;8742;51.716;8.790;2023-09-12T09:48:26;31.20;99.90
17252;DHT22;8742;51.716;8.790;2023-09-12T09:51:00;31.40;99.90
17252;DHT22;8742;51.716;8.790;2023-09-12T09:53:29;31.70;99.60
17252;DHT22;8742;51.716;8.790;2023-09-12T09:56:10;31.80;99.80
17252;DHT22;8742;51.716;8.790;2023-09-12T09:58:45;32.10;99.50
17252;DHT22;8742;51.716;8.790;2023-09-12T10:01:14;32.20;97.30
17252;DHT22;8742;51.716;8.790;2023-09-12T10:03:45;32.40;96.80
17252;DHT22;8742;51.716;8.790;2023-09-12T10:06:13;31.90;96.30
17252;DHT22;8742;51.716;8.790;2023-09-12T10:08:43;31.20;96.10
17252;DHT22;8742;51.716;8.790;2023-09-12T10:11:11;30.40;96.50
17252;DHT22;8742;51.716;8.790;2023-09-12T10:13:41;29.80;97.20
17252;DHT22;8742;51.716;8.790;2023-09-12T10:16:11;29.60;97.90
17252;DHT22;8742;51.716;8.790;2023-09-12T10:18:46;29.60;97.80
17252;DHT22;8742;51.716;8.790;2023-09-12T10:21:20;29.20;97.50
17252;DHT22;8742;51.716;8.790;2023-09-12T10:23:50;28.70;98.10
17252;DHT22;8742;51.716;8.790;2023-09-12T10:26:17;28.30;98.40
17252;DHT22;8742;51.716;8.790;2023-09-12T10:28:46;27.80;98.90
17252;DHT22;8742;51.716;8.790;2023-09-12T10:31:14;27.30;99.00
17252;DHT22;8742;51.716;8.790;2023-09-12T10:33:42;26.80;99.20
17252;DHT22;8742;51.716;8.790;2023-09-12T10:36:11;26.30;99.60
17252;DHT22;8742;51.716;8.790;2023-09-12T10:38:41;25.90;99.90
17252;DHT22;8742;51.716;8.790;2023-09-12T10:41:11;25.50;99.90
17252;DHT22;8742;51.716;8.790;2023-09-12T10:43:40;25.30;99.90
17252;DHT22;8742;51.716;8.790;2023-09-12T10:46:07;25.20;99.90
17252;DHT22;8742;51.716;8.790;2023-09-12T10:48:35;25.10;99.90
17252;DHT22;8742;51.716;8.790;2023-09-12T10:51:02;25.30;99.90
17252;DHT22;8742;51.716;8.790;2023-09-12T10:53:30;25.80;99.90
17252;DHT22;8742;51.716;8.790;2023-09-12T10:55:59;26.90;99.90
17252;DHT22;8742;51.716;8.790;2023-09-12T10:58:28;27.70;99.90
17252;DHT22;8742;51.716;8.790;2023-09-12T11:01:21;28.10;99.90
17252;DHT22;8742;51.716;8.790;2023-09-12T11:03:48;28.90;99.90
17252;DHT22;8742;51.716;8.790;2023-09-12T11:06:22;30.30;99.90
17252;DHT22;8742;51.716;8.790;2023-09-12T11:09:16;31.30;98.00
17252;DHT22;8742;51.716;8.790;2023-09-12T11:11:45;31.50;96.40
17252;DHT22;8742;51.716;8.790;2023-09-12T11:14:15;31.30;95.70
17252;DHT22;8742;51.716;8.790;2023-09-12T11:16:42;31.10;96.20
17252;DHT22;8742;51.716;8.790;2023-09-12T11:19:17;30.80;95.90
17252;DHT22;8742;51.716;8.790;2023-09-12T11:21:45;30.30;95.00
17252;DHT22;8742;51.716;8.790;2023-09-12T11:24:13;29.80;95.50
17252;DHT22;8742;51.716;8.790;2023-09-12T11:26:54;29.60;95.30
17252;DHT22;8742;51.716;8.790;2023-09-12T11:29:26;29.40;95.80
17252;DHT22;8742;51.716;8.790;2023-09-12T11:31:55;30.30;97.10
17252;DHT22;8742;51.716;8.790;2023-09-12T11:34:25;31.40;96.10
17252;DHT22;8742;51.716;8.790;2023-09-12T11:36:55;32.60;95.20
17252;DHT22;8742;51.716;8.790;2023-09-12T11:39:23;33.70;94.70
17252;DHT22;8742;51.716;8.790;2023-09-12T11:41:51;34.40;92.80
17252;DHT22;8742;51.716;8.790;2023-09-12T11:44:19;34.60;91.40
17252;DHT22;8742;51.716;8.790;2023-09-12T11:46:49;34.50;91.30
17252;DHT22;8742;51.716;8.790;2023-09-12T11:49:17;34.20;90.20
17252;DHT22;8742;51.716;8.790;2023-09-12T11:51:49;34.10;90.30
17252;DHT22;8742;51.716;8.790;2023-09-12T11:54:18;34.70;91.40
17252;DHT22;8742;51.716;8.790;2023-09-12T11:56:47;35.10;90.90
17252;DHT22;8742;51.716;8.790;2023-09-12T11:59:14;35.30;90.10
17252;DHT22;8742;51.716;8.790;2023-09-12T12:01:44;35.50;89.90
17252;DHT22;8742;51.716;8.790;2023-09-12T12:04:13;35.70;88.80
17252;DHT22;8742;51.716;8.790;2023-09-12T12:06:40;35.90;87.20
17252;DHT22;8742;51.716;8.790;2023-09-12T12:09:07;36.10;87.40
17252;DHT22;8742;51.716;8.790;2023-09-12T12:11:35;36.20;86.80
17252;DHT22;8742;51.716;8.790;2023-09-12T12:14:10;36.20;85.90
17252;DHT22;8742;51.716;8.790;2023-09-12T12:16:37;36.10;85.50
17252;DHT22;8742;51.716;8.790;2023-09-12T12:19:04;36.20;84.20
17252;DHT22;8742;51.716;8.790;2023-09-12T12:21:32;35.90;81.80
17252;DHT22;8742;51.716;8.790;2023-09-12T12:23:59;35.60;82.10
17252;DHT22;8742;51.716;8.790;2023-09-12T12:26:26;35.70;82.40
17252;DHT22;8742;51.716;8.790;2023-09-12T12:28:53;36.00;82.20
17252;DHT22;8742;51.716;8.790;2023-09-12T12:31:20;36.30;79.80
17252;DHT22;8742;51.716;8.790;2023-09-12T12:33:50;36.00;77.70
17252;DHT22;8742;51.716;8.790;2023-09-12T12:36:16;35.30;78.90
17252;DHT22;8742;51.716;8.790;2023-09-12T12:38:46;34.70;80.00
17252;DHT22;8742;51.716;8.790;2023-09-12T12:41:13;33.80;80.00
17252;DHT22;8742;51.716;8.790;2023-09-12T12:43:41;32.90;80.40
17252;DHT22;8742;51.716;8.790;2023-09-12T12:46:11;32.20;82.00
17252;DHT22;8742;51.716;8.790;2023-09-12T12:48:39;32.10;83.40
17252;DHT22;8742;51.716;8.790;2023-09-12T12:51:14;32.40;83.90
17252;DHT22;8742;51.716;8.790;2023-09-12T12:53:44;32.40;82.80
17252;DHT22;8742;51.716;8.790;2023-09-12T12:56:13;32.30;83.50
17252;DHT22;8742;51.716;8.790;2023-09-12T12:58:46;32.20;83.20
17252;DHT22;8742;51.716;8.790;2023-09-12T13:01:14;32.10;83.90
17252;DHT22;8742;51.716;8.790;2023-09-12T13:03:41;32.00;84.60
17252;DHT22;8742;51.716;8.790;2023-09-12T13:06:08;32.10;86.10
17252;DHT22;8742;51.716;8.790;2023-09-12T13:08:39;32.50;85.40
17252;DHT22;8742;51.716;8.790;2023-09-12T13:11:09;33.00;84.80
17252;DHT22;8742;51.716;8.790;2023-09-12T13:13:36;33.40;84.80
17252;DHT22;8742;51.716;8.790;2023-09-12T13:16:04;33.80;83.00
17252;DHT22;8742;51.716;8.790;2023-09-12T13:18:31;34.00;80.90
17252;DHT22;8742;51.716;8.790;2023-09-12T13:20:58;34.00;81.30
17252;DHT22;8742;51.716;8.790;2023-09-12T13:23:25;34.20;78.90
17252;DHT22;8742;51.716;8.790;2023-09-12T13:25:52;34.20;80.70
17252;DHT22;8742;51.716;8.790;2023-09-12T13:28:21;34.50;80.70
17252;DHT22;8742;51.716;8.790;2023-09-12T13:30:49;34.70;79.80
17252;DHT22;8742;51.716;8.790;2023-09-12T13:33:16;35.00;79.80
17252;DHT22;8742;51.716;8.790;2023-09-12T13:35:42;35.00;78.40
17252;DHT22;8742;51.716;8.790;2023-09-12T13:38:10;35.10;78.70
17252;DHT22;8742;51.716;8.790;2023-09-12T13:40:37;34.90;76.10
17252;DHT22;8742;51.716;8.790;2023-09-12T13:43:04;34.50;78.60
17252;DHT22;8742;51.716;8.790;2023-09-12T13:45:33;33.80;79.10
17252;DHT22;8742;51.716;8.790;2023-09-12T13:48:00;33.20;80.00
17252;DHT22;8742;51.716;8.790;2023-09-12T13:50:27;32.40;80.50
17252;DHT22;8742;51.716;8.790;2023-09-12T13:52:54;31.80;81.90
17252;DHT22;8742;51.716;8.790;2023-09-12T13:55:22;31.20;82.80
17252;DHT22;8742;51.716;8.790;2023-09-12T13:57:49;30.70;83.40
17252;DHT22;8742;51.716;8.790;2023-09-12T14:00:16;30.40;84.30
17252;DHT22;8742;51.716;8.790;2023-09-12T14:02:44;30.20;85.30
17252;DHT22;8742;51.716;8.790;2023-09-12T14:05:12;30.20;85.00
17252;DHT22;8742;51.716;8.790;2023-09-12T14:07:39;30.50;84.60
17252;DHT22;8742;51.716;8.790;2023-09-12T14:10:06;30.40;85.60
17252;DHT22;8742;51.716;8.790;2023-09-12T14:12:33;30.30;85.50
17252;DHT22;8742;51.716;8.790;2023-09-12T14:15:00;30.10;86.10
17252;DHT22;8742;51.716;8.790;2023-09-12T14:17:28;30.10;86.30
17252;DHT22;8742;51.716;8.790;2023-09-12T14:19:56;30.30;87.30
17252;DHT22;8742;51.716;8.790;2023-09-12T14:22:23;30.70;87.10
17252;DHT22;8742;51.716;8.790;2023-09-12T14:24:50;31.00;86.20
17252;DHT22;8742;51.716;8.790;2023-09-12T14:27:17;30.90;85.80
17252;DHT22;8742;51.716;8.790;2023-09-12T14:29:44;30.80;85.80
17252;DHT22;8742;51.716;8.790;2023-09-12T14:32:14;30.80;85.90
17252;DHT22;8742;51.716;8.790;2023-09-12T14:34:41;31.20;86.50
17252;DHT22;8742;51.716;8.790;2023-09-12T14:37:09;31.60;85.70
17252;DHT22;8742;51.716;8.790;2023-09-12T14:39:35;32.20;85.80
17252;DHT22;8742;51.716;8.790;2023-09-12T14:42:03;32.80;85.50
17252;DHT22;8742;51.716;8.790;2023-09-12T14:44:34;33.10;83.30
17252;DHT22;8742;51.716;8.790;2023-09-12T14:47:01;33.40;83.50
17252;DHT22;8742;51.716;8.790;2023-09-12T14:49:27;33.60;81.80
17252;DHT22;8742;51.716;8.790;2023-09-12T14:51:54;33.50;81.90
17252;DHT22;8742;51.716;8.790;2023-09-12T14:54:22;33.20;82.10
17252;DHT22;8742;51.716;8.790;2023-09-12T14:56:49;33.10;82.50
17252;DHT22;8742;51.716;8.790;2023-09-12T14:59:17;33.20;82.40
17252;DHT22;8742;51.716;8.790;2023-09-12T15:01:43;33.40;81.90
17252;DHT22;8742;51.716;8.790;2023-09-12T15:04:10;33.50;81.20
17252;DHT22;8742;51.716;8.790;2023-09-12T15:06:37;33.70;80.70
17252;DHT22;8742;51.716;8.790;2023-09-12T15:09:04;34.00;80.60
17252;DHT22;8742;51.716;8.790;2023-09-12T15:11:33;34.10;80.20
17252;DHT22;8742;51.716;8.790;2023-09-12T15:13:59;34.00;80.30
17252;DHT22;8742;51.716;8.790;2023-09-12T15:16:26;34.00;80.00
17252;DHT22;8742;51.716;8.790;2023-09-12T15:18:56;34.00;80.90
17252;DHT22;8742;51.716;8.790;2023-09-12T15:21:23;34.00;81.10
17252;DHT22;8742;51.716;8.790;2023-09-12T15:23:50;34.00;81.60
17252;DHT22;8742;51.716;8.790;2023-09-12T15:26:17;34.00;82.10
17252;DHT22;8742;51.716;8.790;2023-09-12T15:28:45;34.20;82.00
17252;DHT22;8742;51.716;8.790;2023-09-12T15:31:11;34.50;81.70
17252;DHT22;8742;51.716;8.790;2023-09-12T15:33:38;34.90;80.20
17252;DHT22;8742;51.716;8.790;2023-09-12T15:36:05;35.00;79.40
17252;DHT22;8742;51.716;8.790;2023-09-12T15:38:32;35.20;79.40
17252;DHT22;8742;51.716;8.790;2023-09-12T15:40:59;35.20;79.40
17252;DHT22;8742;51.716;8.790;2023-09-12T15:43:28;35.30;79.30
17252;DHT22;8742;51.716;8.790;2023-09-12T15:45:56;35.00;78.30
17252;DHT22;8742;51.716;8.790;2023-09-12T15:48:23;34.30;78.80
17252;DHT22;8742;51.716;8.790;2023-09-12T15:50:50;33.80;79.30
17252;DHT22;8742;51.716;8.790;2023-09-12T15:53:17;33.10;80.40
17252;DHT22;8742;51.716;8.790;2023-09-12T15:55:44;32.40;81.50
17252;DHT22;8742;51.716;8.790;2023-09-12T15:58:13;31.90;83.00
17252;DHT22;8742;51.716;8.790;2023-09-12T16:00:41;31.30;84.00